Santana do Parnaiba, Brazil
Current Conditions -  °F | °C
As of 7:00 AM on Tuesday 21 Oct 2014 (Local Time) from SBSR Reporting Station
Scattered Clouds Scattered Clouds  
Wind Chill: 66°   Ceiling: Unl
Heat Index: 66°   Visibility: 6mi
Dew Point: 59°   Wind: 9mph
Humidity: 78%   Direction: 180°S
Pressure: 30.09"   Gusts: NA
Location:  19.67°S, 51.18°W
Report Text: SBSR 211000Z 18008KT 9999 FEW045 SCT090 19/15 Q1019
Loading
Personal Weather Stations






























Interactive Weather Map
Tropical Storm Tracking
New forecast layout! Learn more

10-Day Weather Forecast

Advertisements
Track Severe Weather on mobile